sensor_id;sensor_type;location;lat;lon;timestamp;temperature;humidity
23562;DHT22;11959;49.418;8.728;2024-01-16T00:00:56;0.60;99.90
23562;DHT22;11959;49.418;8.728;2024-01-16T00:03:22;0.50;99.90
23562;DHT22;11959;49.418;8.728;2024-01-16T00:05:48;0.50;99.90
23562;DHT22;11959;49.418;8.728;2024-01-16T00:08:14;0.40;99.90
23562;DHT22;11959;49.418;8.728;2024-01-16T00:10:40;0.40;99.90
23562;DHT22;11959;49.418;8.728;2024-01-16T00:13:05;0.40;99.90
23562;DHT22;11959;49.418;8.728;2024-01-16T00:15:31;0.40;99.90
23562;DHT22;11959;49.418;8.728;2024-01-16T00:17:56;0.30;99.90
23562;DHT22;11959;49.418;8.728;2024-01-16T00:20:22;0.30;99.90
23562;DHT22;11959;49.418;8.728;2024-01-16T00:22:49;0.30;99.90
23562;DHT22;11959;49.418;8.728;2024-01-16T00:25:16;0.30;99.90
23562;DHT22;11959;49.418;8.728;2024-01-16T00:27:45;0.40;99.90
23562;DHT22;11959;49.418;8.728;2024-01-16T00:30:11;0.40;99.90
23562;DHT22;11959;49.418;8.728;2024-01-16T00:32:39;0.40;99.90
23562;DHT22;11959;49.418;8.728;2024-01-16T00:35:05;0.30;99.90
23562;DHT22;11959;49.418;8.728;2024-01-16T00:37:30;0.30;99.90
23562;DHT22;11959;49.418;8.728;2024-01-16T00:39:56;0.20;99.90
23562;DHT22;11959;49.418;8.728;2024-01-16T00:42:21;0.20;99.90
23562;DHT22;11959;49.418;8.728;2024-01-16T00:44:47;0.20;99.90
23562;DHT22;11959;49.418;8.728;2024-01-16T00:47:13;0.20;99.90
23562;DHT22;11959;49.418;8.728;2024-01-16T00:49:39;0.20;99.90
23562;DHT22;11959;49.418;8.728;2024-01-16T00:52:04;0.20;99.90
23562;DHT22;11959;49.418;8.728;2024-01-16T00:54:30;0.20;99.90
23562;DHT22;11959;49.418;8.728;2024-01-16T00:56:56;0.20;99.90
23562;DHT22;11959;49.418;8.728;2024-01-16T00:59:25;0.30;99.90
23562;DHT22;11959;49.418;8.728;2024-01-16T01:01:51;0.20;99.90
23562;DHT22;11959;49.418;8.728;2024-01-16T01:04:17;0.30;99.90
23562;DHT22;11959;49.418;8.728;2024-01-16T01:06:42;0.30;99.90
23562;DHT22;11959;49.418;8.728;2024-01-16T01:09:08;0.30;99.90
23562;DHT22;11959;49.418;8.728;2024-01-16T01:11:40;0.30;99.90
23562;DHT22;11959;49.418;8.728;2024-01-16T01:14:05;0.30;99.90
23562;DHT22;11959;49.418;8.728;2024-01-16T01:16:31;0.30;99.90
23562;DHT22;11959;49.418;8.728;2024-01-16T01:18:57;0.40;99.90
23562;DHT22;11959;49.418;8.728;2024-01-16T01:21:22;0.30;99.90
23562;DHT22;11959;49.418;8.728;2024-01-16T01:23:48;0.30;99.90
23562;DHT22;11959;49.418;8.728;2024-01-16T01:26:14;0.30;99.90
23562;DHT22;11959;49.418;8.728;2024-01-16T01:28:40;0.30;99.90
23562;DHT22;11959;49.418;8.728;2024-01-16T01:31:10;0.30;99.90
23562;DHT22;11959;49.418;8.728;2024-01-16T01:33:36;0.30;99.90
23562;DHT22;11959;49.418;8.728;2024-01-16T01:36:02;0.30;99.90
23562;DHT22;11959;49.418;8.728;2024-01-16T01:38:28;0.40;99.90
23562;DHT22;11959;49.418;8.728;2024-01-16T01:40:53;0.40;99.90
23562;DHT22;11959;49.418;8.728;2024-01-16T01:43:22;0.50;99.90
23562;DHT22;11959;49.418;8.728;2024-01-16T01:48:23;0.50;99.90
23562;DHT22;11959;49.418;8.728;2024-01-16T01:50:48;0.50;99.90
23562;DHT22;11959;49.418;8.728;2024-01-16T01:53:14;0.40;99.90
23562;DHT22;11959;49.418;8.728;2024-01-16T01:55:41;0.40;99.90
23562;DHT22;11959;49.418;8.728;2024-01-16T01:58:07;0.30;99.90
23562;DHT22;11959;49.418;8.728;2024-01-16T02:00:33;0.30;99.90
23562;DHT22;11959;49.418;8.728;2024-01-16T02:02:59;0.40;99.90
23562;DHT22;11959;49.418;8.728;2024-01-16T02:05:25;0.30;99.90
23562;DHT22;11959;49.418;8.728;2024-01-16T02:07:52;0.30;99.90
23562;DHT22;11959;49.418;8.728;2024-01-16T02:10:17;0.30;99.90
23562;DHT22;11959;49.418;8.728;2024-01-16T02:12:43;0.30;99.90
23562;DHT22;11959;49.418;8.728;2024-01-16T02:15:09;0.30;99.90
23562;DHT22;11959;49.418;8.728;2024-01-16T02:17:35;0.30;99.90
23562;DHT22;11959;49.418;8.728;2024-01-16T02:20:00;0.30;99.90
23562;DHT22;11959;49.418;8.728;2024-01-16T02:22:28;0.30;99.90
23562;DHT22;11959;49.418;8.728;2024-01-16T02:24:54;0.30;99.90
23562;DHT22;11959;49.418;8.728;2024-01-16T02:27:21;0.30;99.90
23562;DHT22;11959;49.418;8.728;2024-01-16T02:29:46;0.20;99.90
23562;DHT22;11959;49.418;8.728;2024-01-16T02:32:12;0.20;99.90
23562;DHT22;11959;49.418;8.728;2024-01-16T02:34:38;0.30;99.90
23562;DHT22;11959;49.418;8.728;2024-01-16T02:37:04;0.30;99.90
23562;DHT22;11959;49.418;8.728;2024-01-16T02:39:29;0.20;99.90
23562;DHT22;11959;49.418;8.728;2024-01-16T02:41:56;0.30;99.90
23562;DHT22;11959;49.418;8.728;2024-01-16T02:44:23;0.30;99.90
23562;DHT22;11959;49.418;8.728;2024-01-16T02:46:48;0.30;99.90
23562;DHT22;11959;49.418;8.728;2024-01-16T02:49:14;0.30;99.90
23562;DHT22;11959;49.418;8.728;2024-01-16T02:51:41;0.20;99.90
23562;DHT22;11959;49.418;8.728;2024-01-16T02:54:07;0.20;99.90
23562;DHT22;11959;49.418;8.728;2024-01-16T02:56:33;0.20;99.90
23562;DHT22;11959;49.418;8.728;2024-01-16T02:58:59;0.20;99.90
23562;DHT22;11959;49.418;8.728;2024-01-16T03:01:24;0.20;99.90
23562;DHT22;11959;49.418;8.728;2024-01-16T03:03:50;0.10;99.90
23562;DHT22;11959;49.418;8.728;2024-01-16T03:06:23;0.10;99.90
23562;DHT22;11959;49.418;8.728;2024-01-16T03:08:50;0.10;99.90
23562;DHT22;11959;49.418;8.728;2024-01-16T03:11:15;0.00;99.90
23562;DHT22;11959;49.418;8.728;2024-01-16T03:13:41;0.00;99.90
23562;DHT22;11959;49.418;8.728;2024-01-16T03:16:07;0.00;99.90
23562;DHT22;11959;49.418;8.728;2024-01-16T03:18:33;-0.10;99.90
23562;DHT22;11959;49.418;8.728;2024-01-16T03:20:59;-0.10;99.90
23562;DHT22;11959;49.418;8.728;2024-01-16T03:23:25;-0.20;99.90
23562;DHT22;11959;49.418;8.728;2024-01-16T03:25:50;-0.10;99.90
23562;DHT22;11959;49.418;8.728;2024-01-16T03:28:16;-0.20;99.90
23562;DHT22;11959;49.418;8.728;2024-01-16T03:30:41;-0.20;99.90
23562;DHT22;11959;49.418;8.728;2024-01-16T03:33:07;-0.20;99.90
23562;DHT22;11959;49.418;8.728;2024-01-16T03:35:33;-0.20;99.90
23562;DHT22;11959;49.418;8.728;2024-01-16T03:37:59;-0.20;99.90
23562;DHT22;11959;49.418;8.728;2024-01-16T03:40:24;-0.30;99.90
23562;DHT22;11959;49.418;8.728;2024-01-16T03:42:50;-0.30;99.90
23562;DHT22;11959;49.418;8.728;2024-01-16T03:45:16;-0.30;99.90
23562;DHT22;11959;49.418;8.728;2024-01-16T03:47:41;-0.30;99.90
23562;DHT22;11959;49.418;8.728;2024-01-16T03:50:08;-0.30;99.90
23562;DHT22;11959;49.418;8.728;2024-01-16T03:52:33;-0.30;99.90
23562;DHT22;11959;49.418;8.728;2024-01-16T03:54:59;-0.30;99.90
23562;DHT22;11959;49.418;8.728;2024-01-16T03:57:25;-0.30;99.90
23562;DHT22;11959;49.418;8.728;2024-01-16T03:59:50;-0.30;99.90
23562;DHT22;11959;49.418;8.728;2024-01-16T04:02:16;-0.30;99.90
23562;DHT22;11959;49.418;8.728;2024-01-16T04:04:41;-0.30;99.90
23562;DHT22;11959;49.418;8.728;2024-01-16T04:07:07;-0.30;99.90
23562;DHT22;11959;49.418;8.728;2024-01-16T04:09:33;-0.30;99.90
23562;DHT22;11959;49.418;8.728;2024-01-16T04:11:58;-0.30;99.90
23562;DHT22;11959;49.418;8.728;2024-01-16T04:14:24;-0.30;99.90
23562;DHT22;11959;49.418;8.728;2024-01-16T04:16:49;-0.30;99.90
23562;DHT22;11959;49.418;8.728;2024-01-16T04:19:15;-0.30;99.90
23562;DHT22;11959;49.418;8.728;2024-01-16T04:21:41;-0.30;99.90
23562;DHT22;11959;49.418;8.728;2024-01-16T04:24:06;-0.40;99.90
23562;DHT22;11959;49.418;8.728;2024-01-16T04:26:32;-0.40;99.90
23562;DHT22;11959;49.418;8.728;2024-01-16T04:29:00;-0.40;99.90
23562;DHT22;11959;49.418;8.728;2024-01-16T04:31:26;-0.40;99.90
23562;DHT22;11959;49.418;8.728;2024-01-16T04:33:52;-0.40;99.90
23562;DHT22;11959;49.418;8.728;2024-01-16T04:36:17;-0.50;99.90
23562;DHT22;11959;49.418;8.728;2024-01-16T04:38:43;-0.50;99.90
23562;DHT22;11959;49.418;8.728;2024-01-16T04:41:09;-0.40;99.90
23562;DHT22;11959;49.418;8.728;2024-01-16T04:43:34;-0.50;99.90
23562;DHT22;11959;49.418;8.728;2024-01-16T04:46:00;-0.50;99.90
23562;DHT22;11959;49.418;8.728;2024-01-16T04:48:25;-0.50;99.90
23562;DHT22;11959;49.418;8.728;2024-01-16T04:50:51;-0.60;99.90
23562;DHT22;11959;49.418;8.728;2024-01-16T04:53:17;-0.60;99.90
23562;DHT22;11959;49.418;8.728;2024-01-16T04:55:43;-0.60;99.90
23562;DHT22;11959;49.418;8.728;2024-01-16T04:58:09;-0.60;99.90
23562;DHT22;11959;49.418;8.728;2024-01-16T05:00:35;-0.60;99.90
23562;DHT22;11959;49.418;8.728;2024-01-16T05:03:04;-0.60;99.90
23562;DHT22;11959;49.418;8.728;2024-01-16T05:05:30;-0.60;99.90
23562;DHT22;11959;49.418;8.728;2024-01-16T05:07:56;-0.70;99.90
23562;DHT22;11959;49.418;8.728;2024-01-16T05:10:21;-0.70;99.90
23562;DHT22;11959;49.418;8.728;2024-01-16T05:12:48;-0.60;99.90
23562;DHT22;11959;49.418;8.728;2024-01-16T05:15:14;-0.80;99.90
23562;DHT22;11959;49.418;8.728;2024-01-16T05:17:40;-0.80;99.90
23562;DHT22;11959;49.418;8.728;2024-01-16T05:20:06;-0.80;99.90
23562;DHT22;11959;49.418;8.728;2024-01-16T05:22:32;-0.90;99.90
23562;DHT22;11959;49.418;8.728;2024-01-16T05:24:58;-0.80;99.90
23562;DHT22;11959;49.418;8.728;2024-01-16T05:27:24;-0.90;99.90
23562;DHT22;11959;49.418;8.728;2024-01-16T05:29:50;-0.90;99.90
23562;DHT22;11959;49.418;8.728;2024-01-16T05:32:16;-0.90;99.90
23562;DHT22;11959;49.418;8.728;2024-01-16T05:34:42;-0.90;99.90
23562;DHT22;11959;49.418;8.728;2024-01-16T05:37:07;-1.00;99.90
23562;DHT22;11959;49.418;8.728;2024-01-16T05:39:33;-1.00;99.90
23562;DHT22;11959;49.418;8.728;2024-01-16T05:41:59;-1.00;99.90
23562;DHT22;11959;49.418;8.728;2024-01-16T05:44:24;-1.00;99.90
23562;DHT22;11959;49.418;8.728;2024-01-16T05:46:50;-1.10;99.90
23562;DHT22;11959;49.418;8.728;2024-01-16T05:49:16;-1.10;99.90
23562;DHT22;11959;49.418;8.728;2024-01-16T05:51:41;-1.10;99.90
23562;DHT22;11959;49.418;8.728;2024-01-16T05:54:07;-1.10;99.90
23562;DHT22;11959;49.418;8.728;2024-01-16T05:56:33;-1.20;99.90
23562;DHT22;11959;49.418;8.728;2024-01-16T05:58:59;-1.20;99.90
23562;DHT22;11959;49.418;8.728;2024-01-16T06:01:25;-1.20;99.90
23562;DHT22;11959;49.418;8.728;2024-01-16T06:03:52;-1.20;99.90
23562;DHT22;11959;49.418;8.728;2024-01-16T06:06:18;-1.20;99.90
23562;DHT22;11959;49.418;8.728;2024-01-16T06:08:44;-1.30;99.90
23562;DHT22;11959;49.418;8.728;2024-01-16T06:11:10;-1.30;99.90
23562;DHT22;11959;49.418;8.728;2024-01-16T06:13:36;-1.30;99.90
23562;DHT22;11959;49.418;8.728;2024-01-16T06:16:02;-1.30;99.90
23562;DHT22;11959;49.418;8.728;2024-01-16T06:18:28;-1.40;99.90
23562;DHT22;11959;49.418;8.728;2024-01-16T06:20:54;-1.40;99.90
23562;DHT22;11959;49.418;8.728;2024-01-16T06:23:19;-1.40;99.90
23562;DHT22;11959;49.418;8.728;2024-01-16T06:25:45;-1.50;99.90
23562;DHT22;11959;49.418;8.728;2024-01-16T06:28:11;-1.50;99.90
23562;DHT22;11959;49.418;8.728;2024-01-16T06:30:37;-1.50;99.90
23562;DHT22;11959;49.418;8.728;2024-01-16T06:33:03;-1.50;99.90
23562;DHT22;11959;49.418;8.728;2024-01-16T06:35:28;-1.50;99.90
23562;DHT22;11959;49.418;8.728;2024-01-16T06:37:54;-1.60;99.90
23562;DHT22;11959;49.418;8.728;2024-01-16T06:40:20;-1.60;99.90
23562;DHT22;11959;49.418;8.728;2024-01-16T06:42:46;-1.60;99.90
23562;DHT22;11959;49.418;8.728;2024-01-16T06:45:12;-1.60;99.90
23562;DHT22;11959;49.418;8.728;2024-01-16T06:47:38;-1.70;99.90
23562;DHT22;11959;49.418;8.728;2024-01-16T06:50:05;-1.70;99.90
23562;DHT22;11959;49.418;8.728;2024-01-16T06:52:31;-1.70;99.90
23562;DHT22;11959;49.418;8.728;2024-01-16T06:54:56;-1.70;99.90
23562;DHT22;11959;49.418;8.728;2024-01-16T06:57:22;-1.70;99.90
23562;DHT22;11959;49.418;8.728;2024-01-16T06:59:48;-1.60;99.90
23562;DHT22;11959;49.418;8.728;2024-01-16T07:02:13;-1.60;99.90
23562;DHT22;11959;49.418;8.728;2024-01-16T07:04:39;-1.70;99.90
23562;DHT22;11959;49.418;8.728;2024-01-16T07:07:05;-1.70;99.90
23562;DHT22;11959;49.418;8.728;2024-01-16T07:09:31;-1.70;99.90
23562;DHT22;11959;49.418;8.728;2024-01-16T07:11:56;-1.70;99.90
23562;DHT22;11959;49.418;8.728;2024-01-16T07:14:22;-1.70;99.90
23562;DHT22;11959;49.418;8.728;2024-01-16T07:16:48;-1.70;99.90
23562;DHT22;11959;49.418;8.728;2024-01-16T07:19:13;-1.70;99.90
23562;DHT22;11959;49.418;8.728;2024-01-16T07:21:39;-1.80;99.90
23562;DHT22;11959;49.418;8.728;2024-01-16T07:24:05;-1.80;99.90
23562;DHT22;11959;49.418;8.728;2024-01-16T07:26:30;-1.80;99.90
23562;DHT22;11959;49.418;8.728;2024-01-16T07:28:56;-1.80;99.90
23562;DHT22;11959;49.418;8.728;2024-01-16T07:31:22;-1.80;99.90
23562;DHT22;11959;49.418;8.728;2024-01-16T07:33:48;-1.80;99.90
23562;DHT22;11959;49.418;8.728;2024-01-16T07:36:14;-1.70;99.90
23562;DHT22;11959;49.418;8.728;2024-01-16T07:38:40;-1.70;99.90
23562;DHT22;11959;49.418;8.728;2024-01-16T07:41:06;-1.70;99.90
23562;DHT22;11959;49.418;8.728;2024-01-16T07:43:32;-1.70;99.90
23562;DHT22;11959;49.418;8.728;2024-01-16T07:45:58;-1.70;99.90
23562;DHT22;11959;49.418;8.728;2024-01-16T07:48:23;-1.70;99.90
23562;DHT22;11959;49.418;8.728;2024-01-16T07:50:50;-1.70;99.90
23562;DHT22;11959;49.418;8.728;2024-01-16T07:53:16;-1.70;99.90
23562;DHT22;11959;49.418;8.728;2024-01-16T07:55:42;-1.70;99.90
23562;DHT22;11959;49.418;8.728;2024-01-16T07:58:10;-1.70;99.90
23562;DHT22;11959;49.418;8.728;2024-01-16T08:00:36;-1.70;99.90
23562;DHT22;11959;49.418;8.728;2024-01-16T08:03:01;-1.60;99.90
23562;DHT22;11959;49.418;8.728;2024-01-16T08:05:27;-1.60;99.90
23562;DHT22;11959;49.418;8.728;2024-01-16T08:07:58;-1.60;99.90
23562;DHT22;11959;49.418;8.728;2024-01-16T08:10:24;-1.50;99.90
23562;DHT22;11959;49.418;8.728;2024-01-16T08:12:50;-1.40;99.90
23562;DHT22;11959;49.418;8.728;2024-01-16T08:15:15;-1.50;99.90
23562;DHT22;11959;49.418;8.728;2024-01-16T08:17:41;-1.40;99.90
23562;DHT22;11959;49.418;8.728;2024-01-16T08:20:07;-1.40;99.90
23562;DHT22;11959;49.418;8.728;2024-01-16T08:22:36;-1.40;99.90
23562;DHT22;11959;49.418;8.728;2024-01-16T08:25:02;-1.30;99.90
23562;DHT22;11959;49.418;8.728;2024-01-16T08:27:30;-1.30;99.90
23562;DHT22;11959;49.418;8.728;2024-01-16T08:29:56;-1.20;99.90
23562;DHT22;11959;49.418;8.728;2024-01-16T08:32:21;-1.20;99.90
23562;DHT22;11959;49.418;8.728;2024-01-16T08:34:47;-1.20;99.90
23562;DHT22;11959;49.418;8.728;2024-01-16T08:37:13;-1.10;99.90
23562;DHT22;11959;49.418;8.728;2024-01-16T08:39:39;-1.10;99.90
23562;DHT22;11959;49.418;8.728;2024-01-16T08:42:04;-1.00;99.90
23562;DHT22;11959;49.418;8.728;2024-01-16T08:44:30;-1.10;99.90
23562;DHT22;11959;49.418;8.728;2024-01-16T08:46:56;-1.00;99.90
23562;DHT22;11959;49.418;8.728;2024-01-16T08:49:23;-1.00;99.90
23562;DHT22;11959;49.418;8.728;2024-01-16T08:51:48;-1.00;99.90
23562;DHT22;11959;49.418;8.728;2024-01-16T08:54:14;-0.90;99.90
23562;DHT22;11959;49.418;8.728;2024-01-16T08:56:40;-0.90;99.90
23562;DHT22;11959;49.418;8.728;2024-01-16T08:59:05;-0.90;99.90
23562;DHT22;11959;49.418;8.728;2024-01-16T09:01:31;-0.90;99.90
23562;DHT22;11959;49.418;8.728;2024-01-16T09:03:56;-0.80;99.90
23562;DHT22;11959;49.418;8.728;2024-01-16T09:06:22;-0.80;99.90
23562;DHT22;11959;49.418;8.728;2024-01-16T09:08:48;-0.70;99.90
23562;DHT22;11959;49.418;8.728;2024-01-16T09:11:13;-0.70;99.90
23562;DHT22;11959;49.418;8.728;2024-01-16T09:13:39;-0.60;99.90
23562;DHT22;11959;49.418;8.728;2024-01-16T09:16:05;-0.60;99.90
23562;DHT22;11959;49.418;8.728;2024-01-16T09:18:30;-0.50;99.90
23562;DHT22;11959;49.418;8.728;2024-01-16T09:20:56;-0.50;99.90
23562;DHT22;11959;49.418;8.728;2024-01-16T09:23:22;-0.40;99.90
23562;DHT22;11959;49.418;8.728;2024-01-16T09:25:48;-0.40;99.90
23562;DHT22;11959;49.418;8.728;2024-01-16T09:28:13;-0.40;99.90
23562;DHT22;11959;49.418;8.728;2024-01-16T09:30:41;-0.30;99.90
23562;DHT22;11959;49.418;8.728;2024-01-16T09:33:07;-0.30;99.90
23562;DHT22;11959;49.418;8.728;2024-01-16T09:35:33;-0.30;99.90
23562;DHT22;11959;49.418;8.728;2024-01-16T09:37:58;-0.20;99.90
23562;DHT22;11959;49.418;8.728;2024-01-16T09:40:25;-0.20;99.90
23562;DHT22;11959;49.418;8.728;2024-01-16T09:42:51;-0.20;99.90
23562;DHT22;11959;49.418;8.728;2024-01-16T09:45:20;-0.20;99.90
23562;DHT22;11959;49.418;8.728;2024-01-16T09:47:49;-0.10;99.90
23562;DHT22;11959;49.418;8.728;2024-01-16T09:50:15;-0.10;99.90
23562;DHT22;11959;49.418;8.728;2024-01-16T09:52:45;0.00;99.90
23562;DHT22;11959;49.418;8.728;2024-01-16T09:55:10;0.10;99.90
23562;DHT22;11959;49.418;8.728;2024-01-16T09:57:41;0.10;99.90
23562;DHT22;11959;49.418;8.728;2024-01-16T10:00:10;0.20;99.90
23562;DHT22;11959;49.418;8.728;2024-01-16T10:02:39;0.20;99.90
23562;DHT22;11959;49.418;8.728;2024-01-16T10:05:09;0.30;99.90
23562;DHT22;11959;49.418;8.728;2024-01-16T10:07:40;0.40;99.90
23562;DHT22;11959;49.418;8.728;2024-01-16T10:10:07;0.40;99.90
23562;DHT22;11959;49.418;8.728;2024-01-16T10:12:37;0.40;99.90
23562;DHT22;11959;49.418;8.728;2024-01-16T10:15:06;0.50;99.90
23562;DHT22;11959;49.418;8.728;2024-01-16T10:17:40;0.50;99.90
23562;DHT22;11959;49.418;8.728;2024-01-16T10:20:07;0.60;99.90
23562;DHT22;11959;49.418;8.728;2024-01-16T10:22:33;0.60;99.90
23562;DHT22;11959;49.418;8.728;2024-01-16T10:27:31;0.70;99.90
23562;DHT22;11959;49.418;8.728;2024-01-16T10:29:57;0.70;99.90
23562;DHT22;11959;49.418;8.728;2024-01-16T10:32:27;0.80;99.90
23562;DHT22;11959;49.418;8.728;2024-01-16T10:35:08;0.80;99.90
23562;DHT22;11959;49.418;8.728;2024-01-16T10:37:53;0.80;99.90
23562;DHT22;11959;49.418;8.728;2024-01-16T10:40:22;0.80;99.90
23562;DHT22;11959;49.418;8.728;2024-01-16T10:45:26;0.90;99.90
23562;DHT22;11959;49.418;8.728;2024-01-16T10:48:08;0.80;99.90
23562;DHT22;11959;49.418;8.728;2024-01-16T10:50:35;0.90;99.90
23562;DHT22;11959;49.418;8.728;2024-01-16T10:53:08;0.90;99.90
23562;DHT22;11959;49.418;8.728;2024-01-16T10:55:43;0.90;99.90
23562;DHT22;11959;49.418;8.728;2024-01-16T10:58:09;0.90;99.90
23562;DHT22;11959;49.418;8.728;2024-01-16T11:00:39;0.90;99.90
23562;DHT22;11959;49.418;8.728;2024-01-16T11:03:07;1.00;99.90
23562;DHT22;11959;49.418;8.728;2024-01-16T11:05:35;1.00;99.90
23562;DHT22;11959;49.418;8.728;2024-01-16T11:08:03;1.10;99.90
23562;DHT22;11959;49.418;8.728;2024-01-16T11:10:31;1.20;99.90
23562;DHT22;11959;49.418;8.728;2024-01-16T11:13:00;1.20;99.90
23562;DHT22;11959;49.418;8.728;2024-01-16T11:15:27;1.20;99.90
23562;DHT22;11959;49.418;8.728;2024-01-16T11:17:56;1.30;99.90
23562;DHT22;11959;49.418;8.728;2024-01-16T11:20:23;1.30;99.90
23562;DHT22;11959;49.418;8.728;2024-01-16T11:22:50;1.30;99.90
23562;DHT22;11959;49.418;8.728;2024-01-16T11:25:16;1.40;99.90
23562;DHT22;11959;49.418;8.728;2024-01-16T11:27:43;1.40;99.90
23562;DHT22;11959;49.418;8.728;2024-01-16T11:30:11;1.50;99.90
23562;DHT22;11959;49.418;8.728;2024-01-16T11:32:38;1.50;99.90
23562;DHT22;11959;49.418;8.728;2024-01-16T11:35:10;1.50;99.90
23562;DHT22;11959;49.418;8.728;2024-01-16T11:37:42;1.50;99.90
23562;DHT22;11959;49.418;8.728;2024-01-16T11:42:44;1.60;99.90
23562;DHT22;11959;49.418;8.728;2024-01-16T11:48:14;1.70;99.90
23562;DHT22;11959;49.418;8.728;2024-01-16T11:50:40;1.60;99.90
23562;DHT22;11959;49.418;8.728;2024-01-16T11:53:06;1.60;99.90
23562;DHT22;11959;49.418;8.728;2024-01-16T11:55:34;1.60;99.90
23562;DHT22;11959;49.418;8.728;2024-01-16T12:00:53;1.70;99.90
23562;DHT22;11959;49.418;8.728;2024-01-16T12:03:22;1.80;99.90
23562;DHT22;11959;49.418;8.728;2024-01-16T12:05:55;1.70;99.90
23562;DHT22;11959;49.418;8.728;2024-01-16T12:08:21;1.80;99.90
23562;DHT22;11959;49.418;8.728;2024-01-16T12:10:47;1.90;99.90
23562;DHT22;11959;49.418;8.728;2024-01-16T12:13:15;1.80;99.90
23562;DHT22;11959;49.418;8.728;2024-01-16T12:15:41;1.80;99.90
23562;DHT22;11959;49.418;8.728;2024-01-16T12:18:08;1.80;99.90
23562;DHT22;11959;49.418;8.728;2024-01-16T12:20:35;1.80;99.90
23562;DHT22;11959;49.418;8.728;2024-01-16T12:23:02;1.80;99.90
23562;DHT22;11959;49.418;8.728;2024-01-16T12:25:30;1.80;99.90
23562;DHT22;11959;49.418;8.728;2024-01-16T12:28:01;1.90;99.90
23562;DHT22;11959;49.418;8.728;2024-01-16T12:30:28;1.90;99.90
23562;DHT22;11959;49.418;8.728;2024-01-16T12:33:07;1.80;99.90
23562;DHT22;11959;49.418;8.728;2024-01-16T12:35:41;1.80;99.90
23562;DHT22;11959;49.418;8.728;2024-01-16T12:38:09;1.70;99.90
23562;DHT22;11959;49.418;8.728;2024-01-16T12:40:44;1.60;99.90
23562;DHT22;11959;49.418;8.728;2024-01-16T12:43:11;1.60;99.90
23562;DHT22;11959;49.418;8.728;2024-01-16T12:45:37;1.60;99.90
23562;DHT22;11959;49.418;8.728;2024-01-16T12:48:03;1.50;99.90
23562;DHT22;11959;49.418;8.728;2024-01-16T12:50:30;1.50;99.90
23562;DHT22;11959;49.418;8.728;2024-01-16T12:53:03;1.50;99.90
23562;DHT22;11959;49.418;8.728;2024-01-16T12:55:33;1.50;99.90
23562;DHT22;11959;49.418;8.728;2024-01-16T12:58:18;1.40;99.90
23562;DHT22;11959;49.418;8.728;2024-01-16T13:00:45;1.40;99.90
23562;DHT22;11959;49.418;8.728;2024-01-16T13:03:26;1.40;99.90
23562;DHT22;11959;49.418;8.728;2024-01-16T13:05:56;1.40;99.90
23562;DHT22;11959;49.418;8.728;2024-01-16T13:08:22;1.40;99.90
23562;DHT22;11959;49.418;8.728;2024-01-16T13:11:07;1.30;99.90
23562;DHT22;11959;49.418;8.728;2024-01-16T13:13:33;1.30;99.90
23562;DHT22;11959;49.418;8.728;2024-01-16T13:15:59;1.20;99.90
23562;DHT22;11959;49.418;8.728;2024-01-16T13:18:29;1.10;99.90
23562;DHT22;11959;49.418;8.728;2024-01-16T13:20:59;1.10;99.90
23562;DHT22;11959;49.418;8.728;2024-01-16T13:23:25;1.10;99.90
23562;DHT22;11959;49.418;8.728;2024-01-16T13:25:52;1.00;99.90
23562;DHT22;11959;49.418;8.728;2024-01-16T13:28:19;0.90;99.90
23562;DHT22;11959;49.418;8.728;2024-01-16T13:30:45;0.80;99.90
23562;DHT22;11959;49.418;8.728;2024-01-16T13:33:13;0.80;99.90
23562;DHT22;11959;49.418;8.728;2024-01-16T13:35:43;0.80;99.90
23562;DHT22;11959;49.418;8.728;2024-01-16T13:38:11;0.80;99.90
23562;DHT22;11959;49.418;8.728;2024-01-16T13:40:37;0.80;99.90
23562;DHT22;11959;49.418;8.728;2024-01-16T13:43:07;0.80;99.90
23562;DHT22;11959;49.418;8.728;2024-01-16T13:45:34;0.80;99.90
23562;DHT22;11959;49.418;8.728;2024-01-16T13:48:01;0.70;99.90
23562;DHT22;11959;49.418;8.728;2024-01-16T13:50:27;0.70;99.90
23562;DHT22;11959;49.418;8.728;2024-01-16T13:52:53;0.60;99.90
23562;DHT22;11959;49.418;8.728;2024-01-16T13:55:22;0.50;99.90
23562;DHT22;11959;49.418;8.728;2024-01-16T13:57:47;0.60;99.90
23562;DHT22;11959;49.418;8.728;2024-01-16T14:00:14;0.60;99.90
23562;DHT22;11959;49.418;8.728;2024-01-16T14:02:45;0.60;99.90
23562;DHT22;11959;49.418;8.728;2024-01-16T14:05:13;0.60;99.90
23562;DHT22;11959;49.418;8.728;2024-01-16T14:07:43;0.60;99.90
23562;DHT22;11959;49.418;8.728;2024-01-16T14:10:15;0.70;99.90
23562;DHT22;11959;49.418;8.728;2024-01-16T14:12:46;0.70;99.90
23562;DHT22;11959;49.418;8.728;2024-01-16T14:15:17;0.70;99.90
23562;DHT22;11959;49.418;8.728;2024-01-16T14:17:56;0.70;99.90
23562;DHT22;11959;49.418;8.728;2024-01-16T14:20:23;0.60;99.90
23562;DHT22;11959;49.418;8.728;2024-01-16T14:22:50;0.60;99.90
23562;DHT22;11959;49.418;8.728;2024-01-16T14:25:17;0.60;99.90
23562;DHT22;11959;49.418;8.728;2024-01-16T14:27:47;0.60;99.90
23562;DHT22;11959;49.418;8.728;2024-01-16T14:30:15;0.60;99.90
23562;DHT22;11959;49.418;8.728;2024-01-16T14:32:43;0.60;99.90
23562;DHT22;11959;49.418;8.728;2024-01-16T14:35:10;0.60;99.90
23562;DHT22;11959;49.418;8.728;2024-01-16T14:37:36;0.60;99.90
23562;DHT22;11959;49.418;8.728;2024-01-16T14:40:04;0.60;99.90
23562;DHT22;11959;49.418;8.728;2024-01-16T14:42:42;0.60;99.90
23562;DHT22;11959;49.418;8.728;2024-01-16T14:45:16;0.60;99.90
23562;DHT22;11959;49.418;8.728;2024-01-16T14:47:41;0.60;99.90
23562;DHT22;11959;49.418;8.728;2024-01-16T14:50:08;0.60;99.90
23562;DHT22;11959;49.418;8.728;2024-01-16T14:52:35;0.60;99.90
23562;DHT22;11959;49.418;8.728;2024-01-16T14:55:01;0.60;99.90
23562;DHT22;11959;49.418;8.728;2024-01-16T14:57:27;0.60;99.90
23562;DHT22;11959;49.418;8.728;2024-01-16T14:59:56;0.60;99.90
23562;DHT22;11959;49.418;8.728;2024-01-16T15:02:22;0.70;99.90
23562;DHT22;11959;49.418;8.728;2024-01-16T15:04:48;0.70;99.90
23562;DHT22;11959;49.418;8.728;2024-01-16T15:07:14;0.70;99.90
23562;DHT22;11959;49.418;8.728;2024-01-16T15:09:40;0.70;99.90
23562;DHT22;11959;49.418;8.728;2024-01-16T15:12:06;0.60;99.90
23562;DHT22;11959;49.418;8.728;2024-01-16T15:14:33;0.60;99.90
23562;DHT22;11959;49.418;8.728;2024-01-16T15:16:59;0.50;99.90
23562;DHT22;11959;49.418;8.728;2024-01-16T15:19:25;0.40;99.90
23562;DHT22;11959;49.418;8.728;2024-01-16T15:21:51;0.40;99.90
23562;DHT22;11959;49.418;8.728;2024-01-16T15:24:17;0.40;99.90
23562;DHT22;11959;49.418;8.728;2024-01-16T15:26:55;0.30;99.90
23562;DHT22;11959;49.418;8.728;2024-01-16T15:29:24;0.30;99.90
23562;DHT22;11959;49.418;8.728;2024-01-16T15:31:51;0.30;99.90
23562;DHT22;11959;49.418;8.728;2024-01-16T15:34:21;0.30;99.90
23562;DHT22;11959;49.418;8.728;2024-01-16T15:36:47;0.30;99.90
23562;DHT22;11959;49.418;8.728;2024-01-16T15:39:14;0.30;99.90
23562;DHT22;11959;49.418;8.728;2024-01-16T15:41:43;0.20;99.90
23562;DHT22;11959;49.418;8.728;2024-01-16T15:44:09;0.20;99.90
23562;DHT22;11959;49.418;8.728;2024-01-16T15:49:21;0.10;99.90
23562;DHT22;11959;49.418;8.728;2024-01-16T15:51:46;0.10;99.90
23562;DHT22;11959;49.418;8.728;2024-01-16T15:54:12;0.00;99.90
23562;DHT22;11959;49.418;8.728;2024-01-16T15:56:38;0.00;99.90